createdAt,value
2022-11-12T00:01:12.092Z,2.40
2022-11-12T00:03:40.227Z,2.40
2022-11-12T00:06:09.655Z,2.63
2022-11-12T00:08:37.707Z,2.40
2022-11-12T00:11:06.025Z,2.63
2022-11-12T00:13:34.001Z,2.57
2022-11-12T00:16:01.975Z,2.70
2022-11-12T00:18:30.023Z,2.70
2022-11-12T00:20:58.228Z,2.57
2022-11-12T00:23:27.601Z,2.47
2022-11-12T00:26:02.160Z,2.53
2022-11-12T00:28:34.789Z,2.37
2022-11-12T00:31:10.498Z,2.70
2022-11-12T00:33:42.022Z,2.60
2022-11-12T00:36:10.200Z,2.40
2022-11-12T00:38:39.497Z,2.17
2022-11-12T00:41:07.494Z,2.60
2022-11-12T00:43:35.613Z,2.37
2022-11-12T00:46:03.721Z,2.80
2022-11-12T00:48:31.696Z,2.27
2022-11-12T00:51:04.010Z,2.57
2022-11-12T00:53:31.999Z,2.37
2022-11-12T00:56:06.137Z,2.40
2022-11-12T00:58:36.036Z,2.40
2022-11-12T01:01:09.031Z,2.47
2022-11-12T01:03:37.843Z,2.93
2022-11-12T01:06:07.010Z,2.50
2022-11-12T01:08:35.430Z,2.90
2022-11-12T01:11:09.898Z,2.57
2022-11-12T01:13:43.948Z,2.17
2022-11-12T01:16:14.713Z,2.30
2022-11-12T01:18:43.229Z,2.40
2022-11-12T01:21:11.487Z,2.60
2022-11-12T01:23:40.902Z,2.60
2022-11-12T01:26:11.905Z,3.07
2022-11-12T01:28:40.683Z,2.37
2022-11-12T01:31:13.475Z,2.53
2022-11-12T01:33:42.136Z,2.60
2022-11-12T01:36:10.678Z,2.40
2022-11-12T01:38:40.274Z,3.07
2022-11-12T01:41:12.001Z,2.80
2022-11-12T01:43:40.337Z,2.80
2022-11-12T01:46:18.836Z,2.63
2022-11-12T01:48:53.167Z,2.60
2022-11-12T01:51:22.582Z,2.90
2022-11-12T01:53:55.430Z,2.60
2022-11-12T01:56:42.463Z,2.80
2022-11-12T01:59:18.052Z,2.63
2022-11-12T02:01:46.020Z,2.87
2022-11-12T02:04:14.073Z,2.80
2022-11-12T02:06:44.376Z,2.77
2022-11-12T02:09:12.656Z,2.50
2022-11-12T02:11:42.022Z,2.97
2022-11-12T02:14:09.160Z,2.80
2022-11-12T02:16:39.472Z,2.50
2022-11-12T02:19:08.851Z,2.90
2022-11-12T02:21:38.289Z,2.53
2022-11-12T02:24:08.012Z,2.83
2022-11-12T02:26:40.041Z,2.77
2022-11-12T02:29:08.259Z,2.50
2022-11-12T02:31:36.548Z,3.10
2022-11-12T02:34:04.913Z,2.60
2022-11-12T02:36:32.884Z,2.50
2022-11-12T02:39:02.244Z,2.70
2022-11-12T02:41:30.256Z,2.60
2022-11-12T02:43:58.297Z,2.90
2022-11-12T02:46:26.306Z,2.70
2022-11-12T02:48:54.231Z,3.17
2022-11-12T02:51:22.209Z,2.80
2022-11-12T02:53:50.177Z,3.13
2022-11-12T02:56:19.501Z,3.07
2022-11-12T02:58:47.473Z,3.13
2022-11-12T03:01:15.482Z,2.90
2022-11-12T03:03:43.451Z,3.13
2022-11-12T03:06:11.407Z,2.87
2022-11-12T03:08:39.389Z,2.70
2022-11-12T03:11:08.500Z,3.20
2022-11-12T03:13:38.364Z,4.10
2022-11-12T03:16:06.879Z,2.83
2022-11-12T03:18:35.045Z,3.17
2022-11-12T03:21:03.040Z,3.10
2022-11-12T03:23:31.038Z,3.20
2022-11-12T03:25:59.022Z,2.50
2022-11-12T03:28:27.207Z,3.30
2022-11-12T03:30:58.813Z,3.27
2022-11-12T03:33:26.955Z,2.83
2022-11-12T03:35:55.214Z,3.33
2022-11-12T03:38:23.474Z,2.80
2022-11-12T03:40:51.634Z,2.80
2022-11-12T03:43:19.606Z,3.30
2022-11-12T03:45:47.772Z,3.10
2022-11-12T03:48:17.088Z,2.60
2022-11-12T03:50:45.108Z,2.67
2022-11-12T03:53:13.418Z,2.60
2022-11-12T03:55:41.664Z,2.60
2022-11-12T03:58:09.619Z,3.13
2022-11-12T04:00:37.717Z,2.77
2022-11-12T04:03:05.664Z,2.87
2022-11-12T04:05:52.865Z,2.93
2022-11-12T04:08:38.554Z,4.00
2022-11-12T04:11:09.054Z,3.70
2022-11-12T04:13:38.315Z,3.53
2022-11-12T04:16:26.037Z,3.47
2022-11-12T04:19:14.066Z,4.00
2022-11-12T04:21:55.804Z,3.80
2022-11-12T04:24:43.605Z,3.37
2022-11-12T04:27:15.024Z,3.60
2022-11-12T04:30:00.782Z,3.50
2022-11-12T04:32:29.189Z,3.30
2022-11-12T04:34:57.405Z,3.63
2022-11-12T04:37:28.658Z,3.57
2022-11-12T04:40:16.659Z,2.70
2022-11-12T04:43:06.654Z,3.10
2022-11-12T04:45:35.286Z,3.17
2022-11-12T04:48:03.237Z,3.63
2022-11-12T04:50:31.361Z,2.70
2022-11-12T04:53:00.757Z,3.30
2022-11-12T04:55:28.712Z,3.17
2022-11-12T04:58:00.605Z,3.10
2022-11-12T05:00:29.509Z,2.40
2022-11-12T05:02:57.464Z,2.73
2022-11-12T05:05:28.567Z,2.70
2022-11-12T05:08:02.385Z,2.73
2022-11-12T05:10:31.187Z,2.53
2022-11-12T05:12:59.533Z,2.50
2022-11-12T05:15:27.501Z,2.80
2022-11-12T05:17:55.472Z,2.70
2022-11-12T05:20:23.459Z,2.27
2022-11-12T05:23:05.503Z,2.40
2022-11-12T05:25:35.640Z,2.80
2022-11-12T05:28:05.665Z,2.77
2022-11-12T05:30:34.780Z,3.20
2022-11-12T05:33:02.764Z,2.87
2022-11-12T05:35:30.730Z,2.60
2022-11-12T05:37:58.688Z,2.93
2022-11-12T05:40:26.632Z,2.97
2022-11-12T05:42:55.966Z,2.80
2022-11-12T05:45:23.938Z,2.40
2022-11-12T05:47:51.919Z,2.60
2022-11-12T05:50:20.279Z,2.63
2022-11-12T05:52:48.220Z,2.80
2022-11-12T05:55:16.397Z,2.60
2022-11-12T05:57:44.350Z,2.70
2022-11-12T06:00:14.926Z,2.57
2022-11-12T06:02:43.192Z,2.80
2022-11-12T06:05:11.381Z,2.73
2022-11-12T06:07:39.607Z,2.50
2022-11-12T06:10:08.616Z,3.00
2022-11-12T06:12:36.597Z,2.70
2022-11-12T06:15:04.990Z,3.03
2022-11-12T06:17:34.478Z,3.33
2022-11-12T06:20:02.751Z,3.23
2022-11-12T06:22:30.717Z,2.93
2022-11-12T06:24:58.637Z,3.53
2022-11-12T06:27:26.746Z,3.97
2022-11-12T06:29:54.738Z,4.30
2022-11-12T06:32:22.794Z,4.40
2022-11-12T06:34:53.635Z,4.70
2022-11-12T06:37:22.237Z,4.40
2022-11-12T06:39:50.629Z,4.47
2022-11-12T06:42:18.961Z,4.00
2022-11-12T06:44:46.897Z,4.17
2022-11-12T06:47:14.959Z,3.90
2022-11-12T06:49:42.893Z,3.60
2022-11-12T06:52:16.445Z,3.80
2022-11-12T06:54:44.716Z,3.80
2022-11-12T06:57:12.824Z,3.63
2022-11-12T06:59:40.797Z,4.07
2022-11-12T07:02:09.045Z,4.17
2022-11-12T07:04:37.045Z,4.00
2022-11-12T07:07:09.449Z,4.40
2022-11-12T07:09:40.152Z,4.57
2022-11-12T07:12:08.511Z,4.17
2022-11-12T07:14:36.553Z,4.63
2022-11-12T07:17:04.531Z,5.00
2022-11-12T07:19:32.560Z,4.40
2022-11-12T07:22:00.575Z,3.63
2022-11-12T07:24:28.601Z,4.47
2022-11-12T07:26:57.918Z,4.53
2022-11-12T07:29:46.509Z,4.53
2022-11-12T07:32:13.790Z,4.87
2022-11-12T07:34:41.807Z,4.37
2022-11-12T07:37:09.800Z,5.27
2022-11-12T07:39:37.732Z,5.30
2022-11-12T07:42:07.116Z,4.57
2022-11-12T07:44:35.215Z,5.07
2022-11-12T07:47:03.173Z,5.03
2022-11-12T07:49:31.119Z,5.20
2022-11-12T07:51:59.091Z,4.33
2022-11-12T07:54:27.042Z,5.03
2022-11-12T07:56:54.994Z,4.70
2022-11-12T07:59:24.387Z,4.83
2022-11-12T08:01:52.474Z,4.90
2022-11-12T08:04:20.432Z,5.33
2022-11-12T08:06:49.464Z,5.20
2022-11-12T08:09:17.702Z,5.03
2022-11-12T08:11:45.673Z,4.70
2022-11-12T08:14:13.644Z,5.30
2022-11-12T08:16:43.044Z,5.40
2022-11-12T08:19:10.987Z,5.30
2022-11-12T08:21:38.937Z,5.70
2022-11-12T08:24:07.483Z,7.63
2022-11-12T08:26:35.446Z,7.40
2022-11-12T08:29:08.378Z,6.77
2022-11-12T08:31:37.027Z,7.63
2022-11-12T08:34:14.369Z,7.43
2022-11-12T08:36:45.428Z,6.73
2022-11-12T08:39:13.421Z,6.70
2022-11-12T08:41:41.382Z,6.40
2022-11-12T08:44:09.347Z,5.80
2022-11-12T08:46:37.333Z,7.00
2022-11-12T08:49:06.680Z,6.77
2022-11-12T08:51:34.729Z,6.23
2022-11-12T08:54:02.820Z,5.57
2022-11-12T08:56:30.865Z,6.33
2022-11-12T08:58:58.839Z,5.17
2022-11-12T09:01:26.950Z,6.13
2022-11-12T09:03:54.985Z,6.07
2022-11-12T09:06:24.447Z,6.07
2022-11-12T09:08:52.421Z,5.83
2022-11-12T09:11:20.407Z,6.23
2022-11-12T09:13:48.564Z,6.37
2022-11-12T09:16:18.059Z,5.70
2022-11-12T09:18:46.046Z,6.03
2022-11-12T09:21:14.290Z,5.20
2022-11-12T09:23:43.585Z,5.47
2022-11-12T09:26:11.525Z,5.93
2022-11-12T09:28:39.489Z,5.60
2022-11-12T09:31:10.356Z,5.73
2022-11-12T09:33:38.344Z,5.37
2022-11-12T09:36:07.082Z,5.20
2022-11-12T09:38:35.228Z,5.43
2022-11-12T09:41:17.257Z,5.50
2022-11-12T09:43:51.095Z,5.30
2022-11-12T09:46:29.799Z,4.93
2022-11-12T09:49:04.530Z,4.80
2022-11-12T09:51:36.947Z,4.47
2022-11-12T09:54:14.742Z,4.90
2022-11-12T09:56:44.185Z,5.00
2022-11-12T09:59:13.871Z,4.13
2022-11-12T10:02:01.638Z,4.37
2022-11-12T10:04:49.321Z,5.03
2022-11-12T10:07:27.307Z,4.87
2022-11-12T10:10:03.948Z,4.40
2022-11-12T10:12:45.494Z,4.13
2022-11-12T10:15:55.826Z,4.60
2022-11-12T10:18:38.204Z,4.37
2022-11-12T10:21:15.303Z,3.83
2022-11-12T10:23:46.074Z,3.90
2022-11-12T10:26:15.761Z,4.60
2022-11-12T10:28:49.070Z,4.20
2022-11-12T10:31:18.652Z,4.23
2022-11-12T10:33:46.949Z,4.27
2022-11-12T10:36:25.754Z,4.30
2022-11-12T10:38:55.764Z,4.33
2022-11-12T10:41:26.314Z,4.87
2022-11-12T10:43:59.249Z,4.57
2022-11-12T10:46:29.769Z,4.90
2022-11-12T10:49:01.961Z,4.13
2022-11-12T10:51:33.351Z,4.27
2022-11-12T10:54:19.750Z,4.80
2022-11-12T10:56:55.011Z,4.37
2022-11-12T10:59:26.206Z,4.57
2022-11-12T11:01:59.656Z,4.30
2022-11-12T11:04:31.822Z,4.63
2022-11-12T11:07:02.720Z,4.50
2022-11-12T11:09:30.846Z,5.20
2022-11-12T11:11:59.140Z,5.17
2022-11-12T11:14:32.057Z,4.70
2022-11-12T11:17:02.253Z,5.13
2022-11-12T11:19:36.307Z,5.23
2022-11-12T11:22:12.427Z,5.20
2022-11-12T11:24:50.550Z,4.93
2022-11-12T11:27:30.531Z,4.60
2022-11-12T11:30:11.068Z,5.73
2022-11-12T11:33:19.222Z,5.90
2022-11-12T11:36:06.983Z,4.77
2022-11-12T11:38:45.841Z,4.63
2022-11-12T11:41:30.450Z,4.60
2022-11-12T11:44:12.803Z,4.20
2022-11-12T11:46:55.639Z,3.93
2022-11-12T11:49:37.554Z,4.00
2022-11-12T11:52:15.493Z,4.47
2022-11-12T11:55:03.280Z,4.37
2022-11-12T11:57:38.601Z,3.87
2022-11-12T12:00:16.479Z,4.03
2022-11-12T12:03:20.621Z,3.77
2022-11-12T12:06:03.623Z,3.97
2022-11-12T12:08:49.128Z,3.77
2022-11-12T12:11:22.125Z,3.97
2022-11-12T12:14:05.248Z,3.83
2022-11-12T12:16:50.665Z,3.80
2022-11-12T12:19:33.246Z,4.10
2022-11-12T12:22:05.676Z,4.23
2022-11-12T12:24:48.062Z,3.97
2022-11-12T12:27:20.347Z,4.10
2022-11-12T12:29:51.953Z,4.10
2022-11-12T12:32:24.447Z,3.70
2022-11-12T12:34:59.978Z,3.73
2022-11-12T12:37:37.101Z,4.37
2022-11-12T12:40:10.942Z,4.03
2022-11-12T12:42:43.982Z,3.50
2022-11-12T12:45:36.291Z,3.60
2022-11-12T12:48:07.153Z,3.93
2022-11-12T12:50:39.929Z,3.80
2022-11-12T12:53:18.897Z,3.63
2022-11-12T12:55:49.178Z,4.57
2022-11-12T12:58:20.494Z,4.30
2022-11-12T13:00:52.086Z,4.47
2022-11-12T13:03:59.687Z,4.20
2022-11-12T13:06:32.518Z,5.07
2022-11-12T13:09:05.078Z,4.43
2022-11-12T13:12:11.363Z,4.27
2022-11-12T13:15:10.994Z,4.10
2022-11-12T13:17:50.994Z,4.30
2022-11-12T13:20:41.484Z,4.30
2022-11-12T13:24:05.593Z,3.57
2022-11-12T13:26:46.223Z,3.83
2022-11-12T13:29:41.905Z,3.93
2022-11-12T13:32:37.724Z,3.67
2022-11-12T13:35:26.834Z,3.40
2022-11-12T13:37:56.733Z,3.50
2022-11-12T13:40:47.377Z,3.33
2022-11-12T13:43:31.394Z,2.97
2022-11-12T13:46:04.266Z,3.40
2022-11-12T13:48:37.221Z,3.60
2022-11-12T13:51:08.228Z,3.60
2022-11-12T13:53:36.215Z,4.30
2022-11-12T13:56:05.781Z,4.10
2022-11-12T13:58:34.957Z,3.53
2022-11-12T14:01:04.290Z,3.53
2022-11-12T14:03:36.462Z,3.80
2022-11-12T14:06:14.962Z,6.53
2022-11-12T14:09:07.669Z,3.33
2022-11-12T14:12:03.550Z,4.07
2022-11-12T14:14:47.802Z,4.70
2022-11-12T14:17:25.049Z,4.27
2022-11-12T14:20:24.937Z,4.70
2022-11-12T14:22:54.209Z,3.87
2022-11-12T14:25:24.811Z,4.03
2022-11-12T14:27:55.430Z,3.97
2022-11-12T14:30:26.231Z,3.53
2022-11-12T14:32:58.951Z,4.07
2022-11-12T14:35:30.986Z,3.63
2022-11-12T14:38:05.227Z,4.17
2022-11-12T14:40:36.369Z,3.37
2022-11-12T14:43:06.138Z,3.67
2022-11-12T14:45:35.517Z,3.73
2022-11-12T14:48:03.775Z,3.30
2022-11-12T14:50:40.182Z,3.73
2022-11-12T14:53:13.909Z,3.57
2022-11-12T14:55:48.339Z,5.33
2022-11-12T14:58:19.589Z,4.83
2022-11-12T15:00:49.181Z,3.70
2022-11-12T15:03:20.956Z,4.37
2022-11-12T15:05:57.252Z,4.80
2022-11-12T15:08:34.029Z,4.43
2022-11-12T15:11:24.639Z,4.77
2022-11-12T15:13:57.438Z,4.70
2022-11-12T15:16:27.573Z,4.50
2022-11-12T15:19:09.211Z,4.47
2022-11-12T15:21:37.834Z,4.50
2022-11-12T15:24:16.973Z,4.23
2022-11-12T15:26:47.025Z,4.50
2022-11-12T15:29:25.440Z,4.53
2022-11-12T15:31:58.006Z,4.27
2022-11-12T15:34:35.168Z,4.07
2022-11-12T15:37:07.790Z,3.90
2022-11-12T15:39:42.599Z,3.50
2022-11-12T15:42:17.692Z,3.10
2022-11-12T15:44:47.552Z,3.03
2022-11-12T15:47:21.625Z,3.10
2022-11-12T15:49:51.267Z,3.40
2022-11-12T15:52:19.637Z,6.67
2022-11-12T15:54:47.793Z,8.70
2022-11-12T15:57:18.427Z,10.63
2022-11-12T15:59:54.806Z,11.37
2022-11-12T16:02:22.932Z,7.93
2022-11-12T16:04:50.907Z,7.80
2022-11-12T16:07:19.063Z,5.87
2022-11-12T16:09:47.108Z,5.70
2022-11-12T16:12:16.217Z,5.73
2022-11-12T16:14:44.169Z,6.50
2022-11-12T16:17:15.683Z,14.40
2022-11-12T16:19:43.687Z,6.20
2022-11-12T16:22:13.454Z,8.37
2022-11-12T16:24:41.634Z,18.50
2022-11-12T16:27:12.645Z,23.47
2022-11-12T16:29:40.643Z,27.47
2022-11-12T16:32:13.474Z,25.23
2022-11-12T16:34:41.819Z,32.93
2022-11-12T16:37:13.312Z,44.40
2022-11-12T16:39:41.385Z,42.10
2022-11-12T16:42:10.711Z,54.17
2022-11-12T16:44:38.779Z,61.90
2022-11-12T16:47:06.913Z,66.73
2022-11-12T16:49:38.884Z,56.63
2022-11-12T16:52:07.157Z,50.97
2022-11-12T16:54:35.222Z,51.07
2022-11-12T16:57:03.188Z,43.40
2022-11-12T16:59:31.195Z,32.87
2022-11-12T17:01:59.761Z,39.20
2022-11-12T17:04:27.770Z,23.13
2022-11-12T17:06:57.127Z,21.60
2022-11-12T17:09:25.187Z,18.00
2022-11-12T17:11:53.159Z,13.40
2022-11-12T17:14:25.494Z,13.20
2022-11-12T17:16:56.059Z,11.20
2022-11-12T17:19:24.117Z,9.00
2022-11-12T17:21:52.171Z,6.57
2022-11-12T17:24:21.779Z,8.70
2022-11-12T17:26:49.777Z,4.80
2022-11-12T17:29:17.910Z,4.03
2022-11-12T17:31:48.776Z,4.13
2022-11-12T17:34:16.753Z,3.93
2022-11-12T17:36:44.798Z,5.33
2022-11-12T17:39:14.210Z,3.87
2022-11-12T17:41:43.597Z,7.43
2022-11-12T17:44:15.964Z,3.97
2022-11-12T17:46:44.179Z,5.47
2022-11-12T17:49:12.341Z,6.07
2022-11-12T17:51:40.521Z,4.70
2022-11-12T17:54:09.410Z,6.50
2022-11-12T17:56:37.530Z,4.03
2022-11-12T17:59:06.834Z,4.77
2022-11-12T18:01:35.441Z,4.70
2022-11-12T18:04:03.540Z,4.17
2022-11-12T18:06:33.880Z,4.33
2022-11-12T18:09:04.512Z,3.90
2022-11-12T18:11:42.055Z,4.50
2022-11-12T18:14:11.478Z,4.00
2022-11-12T18:16:39.544Z,3.60
2022-11-12T18:19:11.053Z,4.70
2022-11-12T18:21:40.442Z,4.63
2022-11-12T18:24:13.380Z,4.37
2022-11-12T18:26:41.383Z,4.37
2022-11-12T18:29:09.478Z,5.13
2022-11-12T18:31:40.416Z,4.57
2022-11-12T18:34:10.520Z,4.67
2022-11-12T18:36:38.502Z,5.00
2022-11-12T18:39:06.955Z,4.70
2022-11-12T18:41:34.961Z,5.57
2022-11-12T18:44:03.155Z,4.47
2022-11-12T18:46:31.166Z,4.30
2022-11-12T18:49:00.545Z,4.73
2022-11-12T18:51:29.008Z,5.23
2022-11-12T18:53:56.982Z,5.77
2022-11-12T18:56:24.977Z,5.53
2022-11-12T18:58:52.972Z,6.43
2022-11-12T19:01:22.767Z,8.30
2022-11-12T19:03:55.129Z,9.37
2022-11-12T19:06:25.473Z,6.03
2022-11-12T19:08:59.137Z,5.70
2022-11-12T19:11:27.142Z,7.43
2022-11-12T19:13:56.196Z,5.77
2022-11-12T19:16:24.627Z,5.67
2022-11-12T19:18:53.381Z,5.87
2022-11-12T19:21:25.066Z,5.07
2022-11-12T19:23:55.270Z,6.07
2022-11-12T19:26:24.665Z,6.87
2022-11-12T19:28:53.195Z,6.63
2022-11-12T19:31:23.415Z,5.80
2022-11-12T19:33:52.137Z,7.20
2022-11-12T19:36:22.355Z,7.43
2022-11-12T19:38:55.635Z,7.00
2022-11-12T19:41:24.276Z,6.93
2022-11-12T19:43:52.764Z,7.73
2022-11-12T19:46:21.515Z,6.63
2022-11-12T19:48:49.832Z,6.93
2022-11-12T19:51:19.787Z,7.60
2022-11-12T19:53:47.808Z,7.03
2022-11-12T19:56:18.825Z,8.50
2022-11-12T19:58:48.097Z,8.40
2022-11-12T20:01:17.776Z,7.67
2022-11-12T20:03:46.182Z,8.17
2022-11-12T20:06:16.223Z,8.47
2022-11-12T20:08:44.254Z,9.60
2022-11-12T20:11:12.495Z,9.77
2022-11-12T20:13:41.913Z,11.03
2022-11-12T20:16:10.799Z,10.97
2022-11-12T20:18:38.907Z,11.30
2022-11-12T20:21:07.799Z,9.93
2022-11-12T20:23:36.944Z,12.17
2022-11-12T20:26:06.499Z,14.47
2022-11-12T20:28:35.016Z,15.53
2022-11-12T20:31:06.890Z,16.13
2022-11-12T20:33:39.363Z,13.80
2022-11-12T20:36:12.418Z,13.87
2022-11-12T20:38:41.811Z,13.77
2022-11-12T20:41:14.525Z,14.90
2022-11-12T20:43:42.868Z,14.33
2022-11-12T20:46:13.823Z,15.23
2022-11-12T20:48:43.605Z,14.40
2022-11-12T20:51:23.768Z,15.93
2022-11-12T20:53:58.893Z,15.90
2022-11-12T20:56:29.258Z,17.27
2022-11-12T20:58:57.741Z,17.50
2022-11-12T21:01:29.034Z,14.07
2022-11-12T21:03:58.348Z,14.90
2022-11-12T21:06:29.594Z,14.87
2022-11-12T21:08:59.692Z,14.07
2022-11-12T21:11:27.740Z,15.53
2022-11-12T21:13:55.786Z,13.67
2022-11-12T21:16:23.789Z,12.60
2022-11-12T21:18:53.171Z,12.40
2022-11-12T21:21:21.509Z,12.90
2022-11-12T21:23:51.422Z,13.73
2022-11-12T21:26:21.254Z,19.43
2022-11-12T21:28:51.657Z,16.43
2022-11-12T21:31:21.667Z,17.47
2022-11-12T21:33:56.199Z,17.83
2022-11-12T21:36:24.584Z,16.23
2022-11-12T21:38:52.934Z,15.77
2022-11-12T21:41:22.867Z,14.23
2022-11-12T21:43:51.607Z,13.23
2022-11-12T21:46:21.643Z,11.40
2022-11-12T21:48:54.785Z,11.67
2022-11-12T21:51:26.104Z,9.83
2022-11-12T21:53:55.863Z,10.10
2022-11-12T21:56:24.545Z,12.30
2022-11-12T21:58:54.030Z,11.03
2022-11-12T22:01:24.956Z,11.20
2022-11-12T22:03:54.693Z,9.37
2022-11-12T22:06:26.210Z,10.33
2022-11-12T22:08:55.678Z,9.97
2022-11-12T22:11:24.336Z,9.97
2022-11-12T22:13:52.311Z,10.20
2022-11-12T22:16:21.650Z,9.97
2022-11-12T22:18:51.788Z,10.07
2022-11-12T22:21:21.941Z,10.77
2022-11-12T22:23:51.767Z,11.17
2022-11-12T22:26:21.872Z,12.37
2022-11-12T22:28:50.182Z,11.17
2022-11-12T22:31:19.980Z,11.17
2022-11-12T22:33:48.384Z,12.17
2022-11-12T22:36:18.162Z,14.27
2022-11-12T22:38:48.088Z,12.27
2022-11-12T22:41:19.070Z,11.37
2022-11-12T22:43:48.914Z,11.30
2022-11-12T22:46:19.269Z,11.67
2022-11-12T22:48:47.445Z,12.10
2022-11-12T22:51:18.312Z,13.53
2022-11-12T22:53:46.348Z,14.77
2022-11-12T22:56:17.462Z,13.30
2022-11-12T22:58:47.275Z,13.97
2022-11-12T23:01:20.952Z,13.90
2022-11-12T23:03:49.587Z,15.00
2022-11-12T23:06:18.456Z,15.30
2022-11-12T23:08:46.741Z,18.57
2022-11-12T23:11:19.365Z,20.07
2022-11-12T23:13:47.855Z,21.20
2022-11-12T23:16:17.153Z,17.83
2022-11-12T23:18:45.378Z,15.83
2022-11-12T23:21:15.789Z,15.50
2022-11-12T23:23:44.520Z,15.77
2022-11-12T23:26:14.755Z,14.83
2022-11-12T23:28:44.151Z,13.37
2022-11-12T23:31:14.430Z,12.47
2022-11-12T23:33:45.723Z,12.00
2022-11-12T23:36:14.143Z,12.27
2022-11-12T23:38:42.251Z,11.50
2022-11-12T23:41:11.851Z,11.63
2022-11-12T23:43:39.923Z,10.87
2022-11-12T23:46:09.356Z,11.87
2022-11-12T23:48:37.337Z,12.20
2022-11-12T23:51:07.878Z,11.87
2022-11-12T23:53:36.914Z,12.77
2022-11-12T23:56:06.235Z,12.27
2022-11-12T23:58:34.280Z,12.50
